createdAt,value
2022-11-17T00:01:51.345Z,6.40
2022-11-17T00:04:25.225Z,5.50
2022-11-17T00:06:56.964Z,4.40
2022-11-17T00:09:29.473Z,4.20
2022-11-17T00:12:22.526Z,4.00
2022-11-17T00:14:54.417Z,5.10
2022-11-17T00:17:26.045Z,8.10
2022-11-17T00:20:15.504Z,5.30
2022-11-17T00:22:47.272Z,6.70
2022-11-17T00:25:18.798Z,6.40
2022-11-17T00:27:50.469Z,7.80
2022-11-17T00:30:43.689Z,6.40
2022-11-17T00:33:33.844Z,5.60
2022-11-17T00:36:06.244Z,11.40
2022-11-17T00:38:37.971Z,6.00
2022-11-17T00:41:09.891Z,4.70
2022-11-17T00:43:41.504Z,5.20
2022-11-17T00:46:13.153Z,5.70
2022-11-17T00:48:44.703Z,5.80
2022-11-17T00:51:16.261Z,3.80
2022-11-17T00:53:47.913Z,4.60
2022-11-17T00:56:19.993Z,4.10
2022-11-17T00:58:51.818Z,5.10
2022-11-17T01:01:24.363Z,5.70
2022-11-17T01:04:03.329Z,4.30
2022-11-17T01:06:37.588Z,3.80
2022-11-17T01:09:12.399Z,3.30
2022-11-17T01:11:44.784Z,3.50
2022-11-17T01:14:19.927Z,3.20
2022-11-17T01:16:51.695Z,4.30
2022-11-17T01:19:24.464Z,3.00
2022-11-17T01:21:56.312Z,4.10
2022-11-17T01:24:27.920Z,4.60
2022-11-17T01:26:59.491Z,3.40
2022-11-17T01:29:31.067Z,3.60
2022-11-17T01:32:02.682Z,4.30
2022-11-17T01:34:34.384Z,4.10
2022-11-17T01:37:21.438Z,4.70
2022-11-17T01:39:53.263Z,3.70
2022-11-17T01:42:26.992Z,4.60
2022-11-17T01:47:36.840Z,4.20
2022-11-17T01:50:14.073Z,4.10
2022-11-17T01:52:47.919Z,2.90
2022-11-17T01:55:21.224Z,2.80
2022-11-17T01:57:56.982Z,2.80
2022-11-17T02:00:28.706Z,2.80
2022-11-17T02:03:01.016Z,2.30
2022-11-17T02:05:41.516Z,2.70
2022-11-17T02:08:22.754Z,4.80
2022-11-17T02:10:55.062Z,3.40
2022-11-17T02:13:27.565Z,3.20
2022-11-17T02:15:59.150Z,2.20
2022-11-17T02:18:31.197Z,3.70
2022-11-17T02:21:22.053Z,3.40
2022-11-17T02:24:18.561Z,2.30
2022-11-17T02:27:27.750Z,2.90
2022-11-17T02:30:04.463Z,2.10
2022-11-17T02:32:47.302Z,2.00
2022-11-17T02:35:27.258Z,2.80
2022-11-17T02:38:08.329Z,2.30
2022-11-17T02:40:45.745Z,3.00
2022-11-17T02:43:39.070Z,1.60
2022-11-17T02:46:15.141Z,2.40
2022-11-17T02:48:52.334Z,2.10
2022-11-17T02:51:25.696Z,0.90
2022-11-17T02:54:00.178Z,2.20
2022-11-17T02:56:31.750Z,1.40
2022-11-17T02:59:06.437Z,1.00
2022-11-17T03:01:58.249Z,1.30
2022-11-17T03:04:41.192Z,1.80
2022-11-17T03:07:27.868Z,2.70
2022-11-17T03:10:13.169Z,1.00
2022-11-17T03:12:55.023Z,1.10
2022-11-17T03:15:38.395Z,1.30
2022-11-17T03:18:18.947Z,2.30
2022-11-17T03:20:59.014Z,1.20
2022-11-17T03:23:36.335Z,1.40
2022-11-17T03:26:12.476Z,2.20
2022-11-17T03:28:47.325Z,1.60
2022-11-17T03:31:21.800Z,1.50
2022-11-17T03:33:54.226Z,1.50
2022-11-17T03:36:31.621Z,2.60
2022-11-17T03:39:08.463Z,2.40
2022-11-17T03:41:44.124Z,2.40
2022-11-17T03:44:18.834Z,2.40
2022-11-17T03:46:54.473Z,6.60
2022-11-17T03:49:34.913Z,5.80
2022-11-17T03:52:07.094Z,4.30
2022-11-17T03:54:40.160Z,5.40
2022-11-17T03:57:19.646Z,5.30
2022-11-17T03:59:56.944Z,5.10
2022-11-17T04:02:29.462Z,3.50
2022-11-17T04:05:06.932Z,3.20
2022-11-17T04:07:41.187Z,2.70
2022-11-17T04:10:15.365Z,2.50
2022-11-17T04:13:04.840Z,2.90
2022-11-17T04:15:54.364Z,2.50
2022-11-17T04:18:26.618Z,2.20
2022-11-17T04:20:59.245Z,2.20
2022-11-17T04:23:30.771Z,1.80
2022-11-17T04:26:20.151Z,2.00
2022-11-17T04:28:52.983Z,1.10
2022-11-17T04:31:25.932Z,2.00
2022-11-17T04:33:58.857Z,1.40
2022-11-17T04:36:32.237Z,2.60
2022-11-17T04:39:04.676Z,2.60
2022-11-17T04:41:57.482Z,3.00
2022-11-17T04:44:30.886Z,2.20
2022-11-17T04:47:03.729Z,3.40
2022-11-17T04:49:35.601Z,3.50
2022-11-17T04:52:07.430Z,3.60
2022-11-17T04:54:39.002Z,4.00
2022-11-17T04:57:10.630Z,5.30
2022-11-17T04:59:42.208Z,7.80
2022-11-17T05:02:13.709Z,4.20
2022-11-17T05:04:57.427Z,4.30
2022-11-17T05:07:29.034Z,3.50
2022-11-17T05:10:01.313Z,2.80
2022-11-17T05:12:50.892Z,4.10
2022-11-17T05:15:43.030Z,4.00
2022-11-17T05:18:14.529Z,1.60
2022-11-17T05:20:46.070Z,1.80
2022-11-17T05:23:49.979Z,1.60
2022-11-17T05:26:22.397Z,1.40
2022-11-17T05:28:55.423Z,1.80
2022-11-17T05:31:27.887Z,3.70
2022-11-17T05:33:59.737Z,2.40
2022-11-17T05:36:31.540Z,3.50
2022-11-17T05:39:03.593Z,2.70
2022-11-17T05:41:35.248Z,3.40
2022-11-17T05:44:07.723Z,5.00
2022-11-17T05:46:39.266Z,6.90
2022-11-17T05:49:10.792Z,5.80
2022-11-17T05:51:42.330Z,4.40
2022-11-17T05:54:14.172Z,4.00
2022-11-17T05:56:50.777Z,5.00
2022-11-17T05:59:28.172Z,4.50
2022-11-17T06:02:04.524Z,14.40
2022-11-17T06:04:37.125Z,5.30
2022-11-17T06:07:09.529Z,6.70
2022-11-17T06:09:43.303Z,12.40
2022-11-17T06:14:45.197Z,6.30
2022-11-17T06:17:22.964Z,3.90
2022-11-17T06:19:59.546Z,24.30
2022-11-17T06:22:32.454Z,3.30
2022-11-17T06:25:06.667Z,9.70
2022-11-17T06:27:40.218Z,3.50
2022-11-17T06:30:13.474Z,12.10
2022-11-17T06:32:46.720Z,7.00
2022-11-17T06:35:19.680Z,7.50
2022-11-17T06:37:51.317Z,6.00
2022-11-17T06:40:22.929Z,5.20
2022-11-17T06:43:10.518Z,5.80
2022-11-17T06:45:44.073Z,7.00
2022-11-17T06:48:18.369Z,3.90
2022-11-17T06:50:51.009Z,3.30
2022-11-17T06:53:26.417Z,2.50
2022-11-17T06:56:14.737Z,2.80
2022-11-17T06:58:46.308Z,3.90
2022-11-17T07:01:18.343Z,3.60
2022-11-17T07:03:49.896Z,3.80
2022-11-17T07:06:21.432Z,4.10
2022-11-17T07:08:52.988Z,4.60
2022-11-17T07:11:24.662Z,4.10
2022-11-17T07:13:56.315Z,3.90
2022-11-17T07:16:29.231Z,4.80
2022-11-17T07:19:03.389Z,4.40
2022-11-17T07:21:35.429Z,6.00
2022-11-17T07:24:07.847Z,5.50
2022-11-17T07:26:39.413Z,4.20
2022-11-17T07:29:11.056Z,3.60
2022-11-17T07:31:43.360Z,3.20
2022-11-17T07:34:14.836Z,3.70
2022-11-17T07:36:46.386Z,5.50
2022-11-17T07:39:21.421Z,6.50
2022-11-17T07:41:53.644Z,6.10
2022-11-17T07:44:25.421Z,7.00
2022-11-17T07:46:57.149Z,11.50
2022-11-17T07:49:29.425Z,7.50
2022-11-17T07:52:01.569Z,8.60
2022-11-17T07:54:33.071Z,8.40
2022-11-17T07:57:04.692Z,9.70
2022-11-17T07:59:36.187Z,5.00
2022-11-17T08:02:07.843Z,4.90
2022-11-17T08:04:39.437Z,4.80
2022-11-17T08:07:11.037Z,5.80
2022-11-17T08:09:42.706Z,4.10
2022-11-17T08:12:14.218Z,6.70
2022-11-17T08:14:45.732Z,4.90
2022-11-17T08:17:17.570Z,7.40
2022-11-17T08:19:49.072Z,7.90
2022-11-17T08:22:21.076Z,16.40
2022-11-17T08:24:52.573Z,8.40
2022-11-17T08:27:25.204Z,5.10
2022-11-17T08:29:56.695Z,13.90
2022-11-17T08:32:29.449Z,5.20
2022-11-17T08:35:01.101Z,14.80
2022-11-17T08:37:32.868Z,9.10
2022-11-17T08:40:04.783Z,7.40
2022-11-17T08:42:36.437Z,8.50
2022-11-17T08:45:09.929Z,8.40
2022-11-17T08:47:42.032Z,8.10
2022-11-17T08:50:13.796Z,7.70
2022-11-17T08:52:45.356Z,8.70
2022-11-17T08:55:16.990Z,7.80
2022-11-17T08:57:48.486Z,6.80
2022-11-17T09:00:21.815Z,6.00
2022-11-17T09:02:53.466Z,5.50
2022-11-17T09:05:25.077Z,5.70
2022-11-17T09:08:10.443Z,7.90
2022-11-17T09:10:51.486Z,4.90
2022-11-17T09:13:23.057Z,5.40
2022-11-17T09:15:54.574Z,7.00
2022-11-17T09:18:26.159Z,9.80
2022-11-17T09:21:03.317Z,10.00
2022-11-17T09:23:35.314Z,6.30
2022-11-17T09:26:10.311Z,7.50
2022-11-17T09:28:42.131Z,5.00
2022-11-17T09:31:16.142Z,5.50
2022-11-17T09:33:48.398Z,5.30
2022-11-17T09:36:20.199Z,4.60
2022-11-17T09:38:51.809Z,7.70
2022-11-17T09:41:28.060Z,4.80
2022-11-17T09:44:09.364Z,5.70
2022-11-17T09:46:53.510Z,4.40
2022-11-17T09:49:35.319Z,4.90
2022-11-17T09:52:15.132Z,6.70
2022-11-17T09:54:53.142Z,5.60
2022-11-17T09:57:31.547Z,4.80
2022-11-17T10:00:14.328Z,5.80
2022-11-17T10:02:46.182Z,6.20
2022-11-17T10:05:21.830Z,6.20
2022-11-17T10:07:55.799Z,7.90
2022-11-17T10:10:37.477Z,6.00
2022-11-17T10:13:23.085Z,10.40
2022-11-17T10:15:59.389Z,7.80
2022-11-17T10:18:37.692Z,14.60
2022-11-17T10:21:11.383Z,12.30
2022-11-17T10:23:47.749Z,8.20
2022-11-17T10:26:19.508Z,8.10
2022-11-17T10:29:08.519Z,9.50
2022-11-17T10:31:45.702Z,8.30
2022-11-17T10:34:38.859Z,4.50
2022-11-17T10:37:30.112Z,4.70
2022-11-17T10:40:24.749Z,4.00
2022-11-17T10:43:19.613Z,4.40
2022-11-17T10:45:53.786Z,3.50
2022-11-17T10:48:29.863Z,5.90
2022-11-17T10:51:03.010Z,6.50
2022-11-17T10:53:45.671Z,16.00
2022-11-17T10:56:21.531Z,7.70
2022-11-17T10:59:13.604Z,11.40
2022-11-17T11:01:47.410Z,5.50
2022-11-17T11:04:39.404Z,4.60
2022-11-17T11:07:13.811Z,7.70
2022-11-17T11:09:50.687Z,8.00
2022-11-17T11:12:33.949Z,6.30
2022-11-17T11:15:30.839Z,8.00
2022-11-17T11:18:02.824Z,8.20
2022-11-17T11:20:47.118Z,6.70
2022-11-17T11:23:27.249Z,10.30
2022-11-17T11:26:12.623Z,9.10
2022-11-17T11:29:00.650Z,9.50
2022-11-17T11:31:42.766Z,8.40
2022-11-17T11:34:30.080Z,5.70
2022-11-17T11:37:07.982Z,6.20
2022-11-17T11:39:51.399Z,5.80
2022-11-17T11:42:43.733Z,6.80
2022-11-17T11:45:25.257Z,4.90
2022-11-17T11:48:21.867Z,5.40
2022-11-17T11:50:58.972Z,5.50
2022-11-17T11:53:43.925Z,7.70
2022-11-17T11:56:23.069Z,8.50
2022-11-17T11:59:00.121Z,11.30
2022-11-17T12:01:40.369Z,7.50
2022-11-17T12:04:26.792Z,9.30
2022-11-17T12:07:07.810Z,8.30
2022-11-17T12:09:54.415Z,6.90
2022-11-17T12:12:33.209Z,8.40
2022-11-17T12:15:34.330Z,8.00
2022-11-17T12:18:12.777Z,9.10
2022-11-17T12:21:12.568Z,12.70
2022-11-17T12:23:59.003Z,10.80
2022-11-17T12:26:32.623Z,10.00
2022-11-17T12:31:52.424Z,8.40
2022-11-17T12:34:32.637Z,16.50
2022-11-17T12:37:21.672Z,10.00
2022-11-17T12:40:05.558Z,11.00
2022-11-17T12:45:12.863Z,7.00
2022-11-17T12:47:54.786Z,7.40
2022-11-17T12:51:04.455Z,7.00
2022-11-17T12:53:49.479Z,8.50
2022-11-17T12:56:46.228Z,8.00
2022-11-17T12:59:52.077Z,6.80
2022-11-17T13:02:39.171Z,8.20
2022-11-17T13:05:16.587Z,11.00
2022-11-17T13:07:48.440Z,8.20
2022-11-17T13:10:30.803Z,6.70
2022-11-17T13:13:17.748Z,8.60
2022-11-17T13:15:52.806Z,9.10
2022-11-17T13:18:33.249Z,14.70
2022-11-17T13:21:05.934Z,8.90
2022-11-17T13:23:43.934Z,20.80
2022-11-17T13:26:23.367Z,11.60
2022-11-17T13:29:07.961Z,8.20
2022-11-17T13:31:39.516Z,8.40
2022-11-17T13:34:18.215Z,7.30
2022-11-17T13:36:57.422Z,6.80
2022-11-17T13:39:29.689Z,8.00
2022-11-17T13:42:04.195Z,8.10
2022-11-17T13:44:36.476Z,6.00
2022-11-17T13:47:23.005Z,6.70
2022-11-17T13:49:54.523Z,12.40
2022-11-17T13:52:41.946Z,7.60
2022-11-17T13:55:21.223Z,8.10
2022-11-17T13:58:00.228Z,7.20
2022-11-17T14:00:32.353Z,7.00
2022-11-17T14:03:06.121Z,6.60
2022-11-17T14:05:37.665Z,6.50
2022-11-17T14:08:23.817Z,7.50
2022-11-17T14:11:08.389Z,9.00
2022-11-17T14:13:44.815Z,9.20
2022-11-17T14:16:25.872Z,9.20
2022-11-17T14:19:04.685Z,7.60
2022-11-17T14:21:36.171Z,7.60
2022-11-17T14:24:13.717Z,8.80
2022-11-17T14:26:46.364Z,8.40
2022-11-17T14:29:18.381Z,10.80
2022-11-17T14:31:49.914Z,16.80
2022-11-17T14:34:21.487Z,16.10
2022-11-17T14:36:56.293Z,9.60
2022-11-17T14:39:28.030Z,9.70
2022-11-17T14:41:59.955Z,6.30
2022-11-17T14:44:31.572Z,8.70
2022-11-17T14:47:03.251Z,15.10
2022-11-17T14:49:34.857Z,18.10
2022-11-17T14:52:06.778Z,12.50
2022-11-17T14:54:38.446Z,9.80
2022-11-17T14:57:10.010Z,11.70
2022-11-17T14:59:41.599Z,11.70
2022-11-17T15:02:13.486Z,11.70
2022-11-17T15:04:52.737Z,11.10
2022-11-17T15:07:24.818Z,11.00
2022-11-17T15:09:57.184Z,11.40
2022-11-17T15:12:29.880Z,18.20
2022-11-17T15:15:01.457Z,9.90
2022-11-17T15:17:33.241Z,6.70
2022-11-17T15:20:05.532Z,15.20
2022-11-17T15:22:37.156Z,21.90
2022-11-17T15:25:10.783Z,13.70
2022-11-17T15:30:13.876Z,16.50
2022-11-17T15:32:45.374Z,16.80
2022-11-17T15:35:17.896Z,15.90
2022-11-17T15:37:49.544Z,23.10
2022-11-17T15:40:21.257Z,13.40
2022-11-17T15:42:55.224Z,19.30
2022-11-17T15:45:27.937Z,19.10
2022-11-17T15:48:00.025Z,23.40
2022-11-17T15:50:31.525Z,26.00
2022-11-17T15:53:04.806Z,20.30
2022-11-17T15:55:37.506Z,28.80
2022-11-17T15:58:09.017Z,16.80
2022-11-17T16:00:41.073Z,16.30
2022-11-17T16:03:12.857Z,19.20
2022-11-17T16:05:44.531Z,14.50
2022-11-17T16:08:16.016Z,15.50
2022-11-17T16:10:47.565Z,13.70
2022-11-17T16:13:19.172Z,18.00
2022-11-17T16:15:51.832Z,20.10
2022-11-17T16:18:23.845Z,14.00
2022-11-17T16:20:57.878Z,11.30
2022-11-17T16:23:31.659Z,16.30
2022-11-17T16:26:04.224Z,21.20
2022-11-17T16:28:36.027Z,18.90
2022-11-17T16:31:18.829Z,18.00
2022-11-17T16:33:51.695Z,17.90
2022-11-17T16:36:25.183Z,20.70
2022-11-17T16:39:13.440Z,20.40
2022-11-17T16:41:46.444Z,27.20
2022-11-17T16:44:19.370Z,25.80
2022-11-17T16:46:51.489Z,24.60
2022-11-17T16:49:23.105Z,22.50
2022-11-17T16:51:55.341Z,15.50
2022-11-17T16:54:26.817Z,15.70
2022-11-17T16:56:58.319Z,20.60
2022-11-17T16:59:29.836Z,12.30
2022-11-17T17:02:01.364Z,12.90
2022-11-17T17:04:33.159Z,19.00
2022-11-17T17:07:10.377Z,19.50
2022-11-17T17:09:42.120Z,22.70
2022-11-17T17:12:14.028Z,18.10
2022-11-17T17:14:45.723Z,17.20
2022-11-17T17:17:17.491Z,15.60
2022-11-17T17:19:48.982Z,20.80
2022-11-17T17:22:20.695Z,15.30
2022-11-17T17:24:52.258Z,15.80
2022-11-17T17:27:24.240Z,22.60
2022-11-17T17:29:57.011Z,18.30
2022-11-17T17:32:28.698Z,17.90
2022-11-17T17:35:00.238Z,21.40
2022-11-17T17:37:34.143Z,21.70
2022-11-17T17:40:06.994Z,11.90
2022-11-17T17:42:38.513Z,16.00
2022-11-17T17:45:11.010Z,22.20
2022-11-17T17:47:42.541Z,10.30
2022-11-17T17:50:14.233Z,14.40
2022-11-17T17:52:45.816Z,18.10
2022-11-17T17:55:17.784Z,13.90
2022-11-17T17:57:49.319Z,19.80
2022-11-17T18:00:22.573Z,18.90
2022-11-17T18:02:54.309Z,21.50
2022-11-17T18:05:26.499Z,18.70
2022-11-17T18:07:58.021Z,19.50
2022-11-17T18:10:29.502Z,21.20
2022-11-17T18:13:01.807Z,24.00
2022-11-17T18:15:34.720Z,18.40
2022-11-17T18:18:06.410Z,25.20
2022-11-17T18:20:38.187Z,18.70
2022-11-17T18:23:09.778Z,15.70
2022-11-17T18:25:41.315Z,14.20
2022-11-17T18:28:13.216Z,11.40
2022-11-17T18:30:45.918Z,14.00
2022-11-17T18:33:17.437Z,10.40
2022-11-17T18:35:48.953Z,9.60
2022-11-17T18:38:20.440Z,10.80
2022-11-17T18:40:56.796Z,10.90
2022-11-17T18:43:33.991Z,9.30
2022-11-17T18:46:07.380Z,13.30
2022-11-17T18:48:40.738Z,16.20
2022-11-17T18:51:21.526Z,14.70
2022-11-17T18:53:54.760Z,10.50
2022-11-17T18:56:32.076Z,13.80
2022-11-17T18:59:06.362Z,32.10
2022-11-17T19:01:38.947Z,20.50
2022-11-17T19:04:11.267Z,19.40
2022-11-17T19:06:42.999Z,19.30
2022-11-17T19:09:15.606Z,15.50
2022-11-17T19:11:47.460Z,21.70
2022-11-17T19:14:18.969Z,18.70
2022-11-17T19:16:50.753Z,18.10
2022-11-17T19:19:22.395Z,18.00
2022-11-17T19:21:53.927Z,12.60
2022-11-17T19:24:25.412Z,13.50
2022-11-17T19:26:59.369Z,16.80
2022-11-17T19:29:30.928Z,16.60
2022-11-17T19:32:02.434Z,16.70
2022-11-17T19:34:33.973Z,18.40
2022-11-17T19:37:05.724Z,17.20
2022-11-17T19:39:37.209Z,18.20
2022-11-17T19:42:12.516Z,17.10
2022-11-17T19:44:44.110Z,17.50
2022-11-17T19:47:15.751Z,19.30
2022-11-17T19:49:47.254Z,18.30
2022-11-17T19:52:19.185Z,16.80
2022-11-17T19:54:50.669Z,16.90
2022-11-17T19:57:22.389Z,20.00
2022-11-17T19:59:53.930Z,16.80
2022-11-17T20:02:25.423Z,15.20
2022-11-17T20:04:57.009Z,15.50
2022-11-17T20:07:28.536Z,13.30
2022-11-17T20:10:00.090Z,15.40
2022-11-17T20:12:34.158Z,11.60
2022-11-17T20:15:06.425Z,12.80
2022-11-17T20:17:37.992Z,13.40
2022-11-17T20:20:12.050Z,11.70
2022-11-17T20:22:45.067Z,16.80
2022-11-17T20:25:17.132Z,16.40
2022-11-17T20:27:48.628Z,14.70
2022-11-17T20:30:20.198Z,21.40
2022-11-17T20:32:51.720Z,21.90
2022-11-17T20:35:23.265Z,19.60
2022-11-17T20:37:54.953Z,15.30
2022-11-17T20:40:26.596Z,17.90
2022-11-17T20:42:58.503Z,16.40
2022-11-17T20:45:29.964Z,19.20
2022-11-17T20:48:01.525Z,20.10
2022-11-17T20:50:33.044Z,19.60
2022-11-17T20:53:04.634Z,19.20
2022-11-17T20:55:36.949Z,17.20
2022-11-17T20:58:08.392Z,14.80
2022-11-17T21:00:40.037Z,14.50
2022-11-17T21:03:11.828Z,14.30
2022-11-17T21:05:43.446Z,16.30
2022-11-17T21:08:14.924Z,16.10
2022-11-17T21:10:46.450Z,16.40
2022-11-17T21:13:17.982Z,18.70
2022-11-17T21:15:49.588Z,15.10
2022-11-17T21:18:27.686Z,15.30
2022-11-17T21:21:00.426Z,15.20
2022-11-17T21:23:32.316Z,12.80
2022-11-17T21:26:07.494Z,13.70
2022-11-17T21:28:40.827Z,15.30
2022-11-17T21:31:14.299Z,14.20
2022-11-17T21:33:46.437Z,16.80
2022-11-17T21:36:19.012Z,20.40
2022-11-17T21:38:50.519Z,22.80
2022-11-17T21:41:23.906Z,18.10
2022-11-17T21:43:58.722Z,19.60
2022-11-17T21:46:32.144Z,19.30
2022-11-17T21:49:04.106Z,18.70
2022-11-17T21:51:38.497Z,21.00
2022-11-17T21:54:11.081Z,21.10
2022-11-17T21:56:42.671Z,23.40
2022-11-17T21:59:17.014Z,23.90
2022-11-17T22:01:48.769Z,22.10
2022-11-17T22:04:20.601Z,21.50
2022-11-17T22:06:52.206Z,20.30
2022-11-17T22:09:23.816Z,19.80
2022-11-17T22:11:55.808Z,19.70
2022-11-17T22:14:27.670Z,19.30
2022-11-17T22:17:00.532Z,16.50
2022-11-17T22:19:33.803Z,18.30
2022-11-17T22:22:05.319Z,16.30
2022-11-17T22:24:39.530Z,19.50
2022-11-17T22:27:11.349Z,15.20
2022-11-17T22:29:42.791Z,15.10
2022-11-17T22:32:14.243Z,15.50
2022-11-17T22:34:45.916Z,16.30
2022-11-17T22:37:17.417Z,17.10
2022-11-17T22:39:49.096Z,17.50
2022-11-17T22:42:21.750Z,18.60
2022-11-17T22:44:53.254Z,19.00
2022-11-17T22:47:24.761Z,16.40
2022-11-17T22:49:56.245Z,15.10
2022-11-17T22:52:27.871Z,15.60
2022-11-17T22:54:59.402Z,14.10
2022-11-17T22:57:30.872Z,14.00
2022-11-17T23:00:02.587Z,12.20
2022-11-17T23:02:34.087Z,13.70
2022-11-17T23:05:06.326Z,13.60
2022-11-17T23:07:38.045Z,14.20
2022-11-17T23:10:11.227Z,15.70
2022-11-17T23:12:42.874Z,16.10
2022-11-17T23:15:14.412Z,12.70
2022-11-17T23:17:45.995Z,13.30
2022-11-17T23:20:18.598Z,13.10
2022-11-17T23:22:50.079Z,12.10
2022-11-17T23:25:22.010Z,11.60
2022-11-17T23:27:53.521Z,13.70
2022-11-17T23:30:25.033Z,16.60
2022-11-17T23:32:57.635Z,12.20
2022-11-17T23:35:29.596Z,10.80
2022-11-17T23:38:01.282Z,11.50
2022-11-17T23:40:32.774Z,12.40
2022-11-17T23:43:04.337Z,11.70
2022-11-17T23:45:35.847Z,13.10
2022-11-17T23:48:07.840Z,13.70
2022-11-17T23:50:40.921Z,12.30
2022-11-17T23:53:12.436Z,10.90
2022-11-17T23:55:43.974Z,11.10
2022-11-17T23:58:15.471Z,12.90
